createdAt,value
2018-05-26T00:01:03.916Z,21.54
2018-05-26T00:03:31.344Z,21.53
2018-05-26T00:05:58.778Z,21.49
2018-05-26T00:08:26.430Z,21.44
2018-05-26T00:10:54.003Z,21.41
2018-05-26T00:13:21.773Z,21.35
2018-05-26T00:15:49.232Z,21.31
2018-05-26T00:18:16.720Z,21.27
2018-05-26T00:20:44.150Z,21.21
2018-05-26T00:23:11.580Z,21.17
2018-05-26T00:25:39.056Z,21.09
2018-05-26T00:28:06.403Z,21.06
2018-05-26T00:30:33.841Z,21.02
2018-05-26T00:33:01.262Z,20.95
2018-05-26T00:35:28.690Z,20.88
2018-05-26T00:37:56.103Z,20.78
2018-05-26T00:40:23.510Z,20.79
2018-05-26T00:42:50.940Z,20.71
2018-05-26T00:45:18.388Z,20.66
2018-05-26T00:47:45.817Z,20.64
2018-05-26T00:50:13.244Z,20.59
2018-05-26T00:52:40.667Z,20.53
2018-05-26T00:55:08.093Z,20.47
2018-05-26T00:57:35.507Z,20.42
2018-05-26T01:00:02.917Z,20.36
2018-05-26T01:02:30.352Z,20.32
2018-05-26T01:04:57.768Z,20.27
2018-05-26T01:07:25.171Z,20.20
2018-05-26T01:09:52.923Z,20.15
2018-05-26T01:12:20.336Z,20.11
2018-05-26T01:14:47.744Z,20.06
2018-05-26T01:17:15.536Z,20.00
2018-05-26T01:19:42.959Z,19.96
2018-05-26T01:22:10.424Z,19.95
2018-05-26T01:24:38.152Z,19.90
2018-05-26T01:27:05.571Z,19.86
2018-05-26T01:29:32.976Z,19.80
2018-05-26T01:32:00.400Z,19.79
2018-05-26T01:34:27.850Z,19.77
2018-05-26T01:36:55.293Z,19.75
2018-05-26T01:39:22.798Z,19.70
2018-05-26T01:41:50.324Z,19.69
2018-05-26T01:44:17.728Z,19.68
2018-05-26T01:46:45.193Z,19.66
2018-05-26T01:49:12.608Z,19.61
2018-05-26T01:51:40.016Z,19.55
2018-05-26T01:54:07.434Z,19.51
2018-05-26T01:56:34.846Z,19.45
2018-05-26T01:59:02.282Z,19.40
2018-05-26T02:01:29.925Z,19.35
2018-05-26T02:03:57.352Z,19.31
2018-05-26T02:06:24.809Z,19.29
2018-05-26T02:08:52.286Z,19.26
2018-05-26T02:11:19.837Z,19.23
2018-05-26T02:13:47.314Z,19.20
2018-05-26T02:16:14.763Z,19.19
2018-05-26T02:18:42.177Z,19.12
2018-05-26T02:21:09.742Z,19.06
2018-05-26T02:23:37.145Z,19.03
2018-05-26T02:26:04.553Z,18.98
2018-05-26T02:28:31.971Z,18.97
2018-05-26T02:30:59.384Z,18.91
2018-05-26T02:33:26.821Z,18.87
2018-05-26T02:35:54.269Z,18.83
2018-05-26T02:38:21.740Z,18.78
2018-05-26T02:40:49.177Z,18.73
2018-05-26T02:43:16.624Z,18.69
2018-05-26T02:45:44.045Z,18.64
2018-05-26T02:48:11.477Z,18.59
2018-05-26T02:50:38.880Z,18.56
2018-05-26T02:53:06.304Z,18.51
2018-05-26T02:55:33.713Z,18.47
2018-05-26T02:58:01.141Z,18.44
2018-05-26T03:00:28.575Z,18.39
2018-05-26T03:02:56.022Z,18.34
2018-05-26T03:05:29.137Z,18.31
2018-05-26T03:08:02.244Z,18.26
2018-05-26T03:10:35.660Z,18.22
2018-05-26T03:13:08.741Z,18.18
2018-05-26T03:15:36.159Z,18.14
2018-05-26T03:18:06.065Z,18.11
2018-05-26T03:20:33.468Z,18.10
2018-05-26T03:23:00.924Z,18.08
2018-05-26T03:25:28.354Z,18.04
2018-05-26T03:27:56.290Z,18.05
2018-05-26T03:30:23.721Z,18.04
2018-05-26T03:32:51.230Z,18.04
2018-05-26T03:35:18.661Z,18.04
2018-05-26T03:37:46.074Z,18.04
2018-05-26T03:40:13.491Z,18.02
2018-05-26T03:42:40.913Z,18.01
2018-05-26T03:45:08.319Z,18.00
2018-05-26T03:47:36.031Z,18.00
2018-05-26T03:50:03.452Z,18.02
2018-05-26T03:52:30.864Z,18.05
2018-05-26T03:58:26.977Z,18.07
2018-05-26T04:00:54.386Z,18.09
2018-05-26T04:03:21.954Z,18.11
2018-05-26T04:05:49.373Z,18.15
2018-05-26T04:08:17.101Z,18.17
2018-05-26T04:10:44.523Z,18.20
2018-05-26T04:13:11.936Z,18.25
2018-05-26T04:15:39.336Z,18.29
2018-05-26T04:18:06.976Z,18.34
2018-05-26T04:20:34.380Z,18.41
2018-05-26T04:23:01.791Z,18.51
2018-05-26T04:25:29.209Z,18.69
2018-05-26T04:27:56.645Z,19.16
2018-05-26T04:30:24.117Z,20.03
2018-05-26T04:32:51.631Z,20.97
2018-05-26T04:35:19.393Z,21.90
2018-05-26T04:37:46.863Z,22.76
2018-05-26T04:40:14.267Z,23.60
2018-05-26T04:42:41.692Z,24.39
2018-05-26T04:45:09.102Z,25.10
2018-05-26T04:47:36.509Z,25.69
2018-05-26T04:50:03.937Z,26.17
2018-05-26T04:52:31.349Z,26.63
2018-05-26T04:54:58.798Z,27.10
2018-05-26T04:57:26.445Z,27.49
2018-05-26T04:59:53.919Z,27.63
2018-05-26T05:02:21.393Z,27.71
2018-05-26T05:04:49.036Z,27.89
2018-05-26T05:07:16.489Z,28.15
2018-05-26T05:09:43.900Z,28.51
2018-05-26T05:12:11.324Z,28.78
2018-05-26T05:14:38.734Z,29.08
2018-05-26T05:17:06.458Z,29.47
2018-05-26T05:19:33.865Z,29.88
2018-05-26T05:22:01.312Z,30.29
2018-05-26T05:24:28.733Z,30.72
2018-05-26T05:26:56.151Z,31.02
2018-05-26T05:29:23.584Z,31.20
2018-05-26T05:31:50.987Z,31.54
2018-05-26T05:34:18.390Z,31.82
2018-05-26T05:36:46.113Z,31.82
2018-05-26T05:39:13.527Z,31.93
2018-05-26T05:41:40.944Z,32.12
2018-05-26T05:44:08.517Z,32.32
2018-05-26T05:46:35.930Z,32.34
2018-05-26T05:49:03.342Z,32.39
2018-05-26T05:51:30.756Z,32.39
2018-05-26T05:53:58.162Z,32.32
2018-05-26T05:56:25.605Z,31.91
2018-05-26T05:58:52.984Z,32.00
2018-05-26T06:01:20.462Z,31.88
2018-05-26T06:03:47.911Z,31.63
2018-05-26T06:06:15.328Z,31.57
2018-05-26T06:08:42.736Z,31.63
2018-05-26T06:11:10.141Z,31.53
2018-05-26T06:13:37.555Z,31.43
2018-05-26T06:16:04.988Z,31.38
2018-05-26T06:18:32.422Z,31.19
2018-05-26T06:20:59.833Z,31.14
2018-05-26T06:23:28.190Z,31.02
2018-05-26T06:25:55.612Z,31.22
2018-05-26T06:28:23.032Z,31.42
2018-05-26T06:30:50.750Z,31.71
2018-05-26T06:33:18.205Z,32.02
2018-05-26T06:35:45.599Z,32.07
2018-05-26T06:38:13.010Z,32.22
2018-05-26T06:40:40.567Z,32.44
2018-05-26T06:43:07.974Z,32.50
2018-05-26T06:45:35.381Z,32.35
2018-05-26T06:48:02.803Z,32.62
2018-05-26T06:50:30.212Z,32.66
2018-05-26T06:52:57.628Z,32.59
2018-05-26T06:55:25.028Z,32.54
2018-05-26T06:57:52.433Z,32.20
2018-05-26T07:00:19.895Z,31.84
2018-05-26T07:02:47.321Z,31.88
2018-05-26T07:05:14.732Z,31.68
2018-05-26T07:07:42.148Z,31.68
2018-05-26T07:10:09.868Z,31.46
2018-05-26T07:12:37.289Z,31.27
2018-05-26T07:15:04.719Z,31.20
2018-05-26T07:17:32.165Z,31.23
2018-05-26T07:19:59.563Z,31.61
2018-05-26T07:22:26.988Z,31.93
2018-05-26T07:24:54.402Z,32.13
2018-05-26T07:27:21.796Z,31.98
2018-05-26T07:29:49.226Z,31.82
2018-05-26T07:32:16.660Z,31.90
2018-05-26T07:34:44.086Z,31.81
2018-05-26T07:37:11.496Z,31.67
2018-05-26T07:39:38.900Z,31.79
2018-05-26T07:42:06.324Z,31.50
2018-05-26T07:44:33.733Z,31.65
2018-05-26T07:47:01.434Z,31.87
2018-05-26T07:49:28.857Z,31.85
2018-05-26T07:51:56.258Z,31.94
2018-05-26T07:54:23.712Z,32.21
2018-05-26T07:56:51.173Z,32.19
2018-05-26T07:59:18.673Z,32.23
2018-05-26T08:01:46.145Z,31.69
2018-05-26T08:04:13.561Z,31.62
2018-05-26T08:06:41.051Z,31.75
2018-05-26T08:09:08.479Z,31.85
2018-05-26T08:11:35.897Z,31.46
2018-05-26T08:14:03.318Z,31.42
2018-05-26T08:16:30.774Z,31.70
2018-05-26T08:18:58.403Z,32.02
2018-05-26T08:21:26.209Z,31.94
2018-05-26T08:23:53.805Z,31.77
2018-05-26T08:26:21.994Z,31.54
2018-05-26T08:28:49.397Z,31.71
2018-05-26T08:31:16.857Z,31.61
2018-05-26T08:33:44.317Z,31.52
2018-05-26T08:36:11.692Z,31.55
2018-05-26T08:38:39.119Z,31.53
2018-05-26T08:41:06.552Z,31.63
2018-05-26T08:43:34.024Z,31.78
2018-05-26T08:46:01.796Z,31.81
2018-05-26T08:48:29.271Z,31.48
2018-05-26T08:50:56.681Z,31.49
2018-05-26T08:53:24.125Z,31.20
2018-05-26T08:55:51.529Z,31.19
2018-05-26T08:58:18.970Z,31.16
2018-05-26T09:00:46.714Z,31.18
2018-05-26T09:03:14.141Z,31.33
2018-05-26T09:05:41.666Z,31.34
2018-05-26T09:08:09.009Z,31.18
2018-05-26T09:10:38.889Z,31.21
2018-05-26T09:13:06.292Z,31.36
2018-05-26T09:15:33.691Z,31.41
2018-05-26T09:18:01.665Z,31.42
2018-05-26T09:20:29.200Z,31.54
2018-05-26T09:22:56.617Z,31.65
2018-05-26T09:25:24.353Z,31.69
2018-05-26T09:27:51.725Z,31.80
2018-05-26T09:30:19.217Z,31.82
2018-05-26T09:32:46.572Z,32.08
2018-05-26T09:35:13.984Z,32.17
2018-05-26T09:37:42.773Z,32.43
2018-05-26T09:40:10.229Z,32.57
2018-05-26T09:42:37.621Z,32.91
2018-05-26T09:45:05.045Z,32.70
2018-05-26T09:47:32.444Z,32.95
2018-05-26T09:49:59.877Z,32.99
2018-05-26T09:52:27.322Z,32.95
2018-05-26T09:54:54.795Z,33.27
2018-05-26T09:57:22.244Z,33.49
2018-05-26T09:59:49.756Z,33.70
2018-05-26T10:02:17.213Z,33.58
2018-05-26T10:04:44.796Z,33.20
2018-05-26T10:07:12.200Z,32.15
2018-05-26T10:09:39.612Z,31.62
2018-05-26T10:12:07.041Z,31.20
2018-05-26T10:14:34.442Z,30.91
2018-05-26T10:17:01.961Z,30.73
2018-05-26T10:19:29.389Z,30.59
2018-05-26T10:21:56.886Z,30.59
2018-05-26T10:24:24.325Z,30.52
2018-05-26T10:26:51.783Z,30.43
2018-05-26T10:29:19.294Z,30.36
2018-05-26T10:31:46.710Z,30.12
2018-05-26T10:34:14.132Z,30.08
2018-05-26T10:36:42.958Z,30.04
2018-05-26T10:39:10.384Z,29.98
2018-05-26T10:41:37.793Z,29.87
2018-05-26T10:44:05.701Z,29.74
2018-05-26T10:46:33.509Z,29.62
2018-05-26T10:49:00.961Z,29.70
2018-05-26T10:51:28.368Z,29.67
2018-05-26T10:53:55.838Z,29.75
2018-05-26T10:56:23.375Z,29.76
2018-05-26T10:58:51.153Z,29.72
2018-05-26T11:01:18.564Z,29.54
2018-05-26T11:03:45.980Z,29.63
2018-05-26T11:06:13.421Z,29.70
2018-05-26T11:08:40.825Z,29.71
2018-05-26T11:11:09.173Z,29.86
2018-05-26T11:13:36.630Z,29.71
2018-05-26T11:16:04.106Z,29.77
2018-05-26T11:18:31.884Z,29.66
2018-05-26T11:20:59.364Z,29.62
2018-05-26T11:23:26.811Z,29.64
2018-05-26T11:25:54.693Z,29.68
2018-05-26T11:28:22.356Z,29.74
2018-05-26T11:30:50.461Z,29.68
2018-05-26T11:33:17.949Z,29.77
2018-05-26T11:35:45.409Z,29.73
2018-05-26T11:38:13.723Z,29.78
2018-05-26T11:40:41.161Z,29.71
2018-05-26T11:43:08.563Z,29.76
2018-05-26T11:45:36.005Z,29.63
2018-05-26T11:48:03.420Z,29.65
2018-05-26T11:50:30.907Z,29.73
2018-05-26T11:52:58.391Z,29.67
2018-05-26T11:55:25.872Z,29.61
2018-05-26T11:57:53.349Z,29.76
2018-05-26T12:00:20.841Z,29.72
2018-05-26T12:02:48.245Z,29.76
2018-05-26T12:05:15.713Z,29.75
2018-05-26T12:07:43.148Z,29.76
2018-05-26T12:10:10.553Z,29.78
2018-05-26T12:12:38.888Z,29.81
2018-05-26T12:15:06.302Z,29.80
2018-05-26T12:17:33.720Z,29.85
2018-05-26T12:20:01.142Z,29.70
2018-05-26T12:22:28.548Z,29.64
2018-05-26T12:24:55.980Z,29.65
2018-05-26T12:27:23.388Z,29.64
2018-05-26T12:29:50.804Z,29.46
2018-05-26T12:32:18.239Z,29.58
2018-05-26T12:34:45.955Z,29.52
2018-05-26T12:37:13.357Z,29.48
2018-05-26T12:39:40.772Z,29.65
2018-05-26T12:42:08.192Z,29.70
2018-05-26T12:44:35.595Z,29.72
2018-05-26T12:47:03.030Z,29.75
2018-05-26T12:49:30.449Z,29.73
2018-05-26T12:51:57.854Z,29.68
2018-05-26T12:54:25.272Z,29.67
2018-05-26T12:56:52.873Z,29.68
2018-05-26T12:59:20.334Z,29.62
2018-05-26T13:01:47.757Z,29.69
2018-05-26T13:04:15.276Z,29.74
2018-05-26T13:06:42.690Z,29.76
2018-05-26T13:09:10.188Z,29.74
2018-05-26T13:11:37.613Z,29.71
2018-05-26T13:14:05.388Z,29.71
2018-05-26T13:16:32.806Z,29.85
2018-05-26T13:19:00.307Z,29.87
2018-05-26T13:21:27.818Z,29.76
2018-05-26T13:23:55.504Z,29.82
2018-05-26T13:26:23.102Z,29.93
2018-05-26T13:28:50.669Z,29.95
2018-05-26T13:31:18.181Z,29.92
2018-05-26T13:33:45.573Z,29.74
2018-05-26T13:36:13.001Z,29.88
2018-05-26T13:38:40.426Z,29.89
2018-05-26T13:41:07.834Z,29.94
2018-05-26T13:43:35.259Z,29.97
2018-05-26T13:46:02.660Z,30.00
2018-05-26T13:48:30.093Z,30.09
2018-05-26T13:50:57.531Z,30.13
2018-05-26T13:53:24.938Z,30.07
2018-05-26T13:55:52.344Z,29.79
2018-05-26T13:58:19.772Z,29.66
2018-05-26T14:00:47.189Z,29.49
2018-05-26T14:03:14.612Z,29.38
2018-05-26T14:05:42.073Z,29.34
2018-05-26T14:08:09.500Z,29.45
2018-05-26T14:10:36.964Z,29.47
2018-05-26T14:13:04.544Z,29.51
2018-05-26T14:15:31.952Z,29.56
2018-05-26T14:17:59.379Z,29.60
2018-05-26T14:20:26.806Z,29.66
2018-05-26T14:22:54.220Z,29.73
2018-05-26T14:25:21.635Z,29.77
2018-05-26T14:27:49.198Z,29.92
2018-05-26T14:30:16.602Z,29.82
2018-05-26T14:32:44.000Z,29.61
2018-05-26T14:35:11.775Z,29.70
2018-05-26T14:37:39.203Z,29.65
2018-05-26T14:40:06.621Z,29.54
2018-05-26T14:42:34.053Z,29.49
2018-05-26T14:45:01.454Z,29.40
2018-05-26T14:47:28.860Z,29.33
2018-05-26T14:49:56.313Z,29.25
2018-05-26T14:52:23.701Z,29.23
2018-05-26T14:54:51.124Z,29.17
2018-05-26T14:57:18.537Z,29.21
2018-05-26T14:59:45.949Z,29.28
2018-05-26T15:02:13.375Z,29.29
2018-05-26T15:04:40.785Z,29.31
2018-05-26T15:07:08.360Z,29.33
2018-05-26T15:09:35.775Z,29.43
2018-05-26T15:12:03.185Z,29.46
2018-05-26T15:14:30.615Z,29.46
2018-05-26T15:16:58.043Z,29.48
2018-05-26T15:19:25.467Z,29.45
2018-05-26T15:21:52.882Z,29.48
2018-05-26T15:24:20.526Z,29.53
2018-05-26T15:26:47.930Z,29.56
2018-05-26T15:29:15.340Z,29.58
2018-05-26T15:31:42.759Z,29.57
2018-05-26T15:34:10.392Z,29.55
2018-05-26T15:36:37.812Z,29.56
2018-05-26T15:39:05.865Z,29.53
2018-05-26T15:41:33.273Z,29.61
2018-05-26T15:44:00.698Z,29.58
2018-05-26T15:46:28.115Z,29.54
2018-05-26T15:48:55.535Z,29.48
2018-05-26T15:51:22.940Z,29.65
2018-05-26T15:53:52.267Z,29.69
2018-05-26T15:56:20.016Z,29.63
2018-05-26T15:58:47.425Z,29.55
2018-05-26T16:01:14.836Z,29.50
2018-05-26T16:03:42.260Z,29.47
2018-05-26T16:06:09.660Z,29.54
2018-05-26T16:08:37.486Z,29.52
2018-05-26T16:11:04.908Z,29.45
2018-05-26T16:13:32.316Z,29.51
2018-05-26T16:15:59.747Z,29.46
2018-05-26T16:18:27.465Z,29.50
2018-05-26T16:20:54.880Z,29.59
2018-05-26T16:23:22.276Z,29.51
2018-05-26T16:25:50.012Z,29.47
2018-05-26T16:28:17.440Z,29.29
2018-05-26T16:30:44.852Z,29.20
2018-05-26T16:33:12.310Z,29.21
2018-05-26T16:35:39.729Z,29.13
2018-05-26T16:38:07.152Z,29.07
2018-05-26T16:40:34.565Z,29.05
2018-05-26T16:43:02.127Z,28.97
2018-05-26T16:45:29.556Z,29.00
2018-05-26T16:47:56.976Z,29.00
2018-05-26T16:50:24.400Z,29.02
2018-05-26T16:52:51.819Z,28.99
2018-05-26T16:55:19.243Z,28.95
2018-05-26T16:57:46.781Z,28.97
2018-05-26T17:00:14.192Z,28.93
2018-05-26T17:02:41.612Z,28.91
2018-05-26T17:05:09.021Z,28.85
2018-05-26T17:07:36.853Z,28.85
2018-05-26T17:10:04.264Z,28.83
2018-05-26T17:12:31.668Z,28.74
2018-05-26T17:14:59.088Z,28.76
2018-05-26T17:17:26.494Z,28.74
2018-05-26T17:19:53.917Z,28.65
2018-05-26T17:22:21.341Z,28.75
2018-05-26T17:24:48.753Z,28.65
2018-05-26T17:27:16.188Z,28.64
2018-05-26T17:29:43.620Z,28.58
2018-05-26T17:32:11.065Z,28.48
2018-05-26T17:34:38.481Z,28.47
2018-05-26T17:37:05.892Z,28.41
2018-05-26T17:39:33.590Z,28.36
2018-05-26T17:42:01.012Z,28.32
2018-05-26T17:44:28.485Z,28.25
2018-05-26T17:46:55.950Z,28.11
2018-05-26T17:49:23.515Z,28.15
2018-05-26T17:51:50.990Z,28.12
2018-05-26T17:54:18.419Z,28.04
2018-05-26T17:56:45.860Z,28.04
2018-05-26T17:59:13.278Z,27.92
2018-05-26T18:01:40.702Z,27.87
2018-05-26T18:04:08.124Z,27.82
2018-05-26T18:06:35.550Z,27.81
2018-05-26T18:09:02.959Z,27.76
2018-05-26T18:11:30.413Z,27.66
2018-05-26T18:13:58.266Z,27.62
2018-05-26T18:16:25.736Z,27.62
2018-05-26T18:18:53.218Z,27.56
2018-05-26T18:21:20.672Z,27.52
2018-05-26T18:23:48.089Z,27.49
2018-05-26T18:26:15.543Z,27.44
2018-05-26T18:28:42.981Z,27.37
2018-05-26T18:31:10.400Z,27.31
2018-05-26T18:33:37.839Z,27.25
2018-05-26T18:36:05.253Z,27.20
2018-05-26T18:38:32.666Z,27.13
2018-05-26T18:41:00.142Z,27.05
2018-05-26T18:43:27.576Z,27.02
2018-05-26T18:45:55.030Z,26.91
2018-05-26T18:48:22.498Z,26.85
2018-05-26T18:50:49.943Z,26.78
2018-05-26T18:53:17.363Z,26.70
2018-05-26T18:55:44.820Z,26.66
2018-05-26T18:58:12.532Z,26.59
2018-05-26T19:00:39.939Z,26.54
2018-05-26T19:03:07.345Z,26.49
2018-05-26T19:05:34.770Z,26.43
2018-05-26T19:08:02.173Z,26.35
2018-05-26T19:10:29.584Z,26.27
2018-05-26T19:12:57.312Z,26.22
2018-05-26T19:15:24.776Z,26.16
2018-05-26T19:17:52.241Z,26.10
2018-05-26T19:20:19.677Z,26.03
2018-05-26T19:22:47.163Z,25.96
2018-05-26T19:25:14.944Z,25.89
2018-05-26T19:27:42.356Z,25.82
2018-05-26T19:30:09.763Z,25.75
2018-05-26T19:32:37.194Z,25.69
2018-05-26T19:35:04.608Z,25.61
2018-05-26T19:37:32.184Z,25.54
2018-05-26T19:39:59.613Z,25.46
2018-05-26T19:42:27.053Z,25.38
2018-05-26T19:44:54.845Z,25.31
2018-05-26T19:47:22.405Z,25.24
2018-05-26T19:49:49.940Z,25.16
2018-05-26T19:52:17.342Z,25.10
2018-05-26T19:54:44.800Z,25.04
2018-05-26T19:57:12.377Z,24.99
2018-05-26T19:59:39.782Z,24.93
2018-05-26T20:02:07.194Z,24.89
2018-05-26T20:04:34.773Z,24.84
2018-05-26T20:07:02.181Z,24.78
2018-05-26T20:09:29.605Z,24.70
2018-05-26T20:11:57.120Z,24.63
2018-05-26T20:14:24.524Z,24.56
2018-05-26T20:16:52.408Z,24.51
2018-05-26T20:19:19.840Z,24.44
2018-05-26T20:21:47.296Z,24.37
2018-05-26T20:24:14.753Z,24.30
2018-05-26T20:26:42.293Z,24.23
2018-05-26T20:29:09.700Z,24.15
2018-05-26T20:31:37.236Z,24.08
2018-05-26T20:34:04.655Z,24.00
2018-05-26T20:36:32.091Z,23.92
2018-05-26T20:38:59.528Z,23.82
2018-05-26T20:41:26.955Z,23.71
2018-05-26T20:43:54.398Z,23.60
2018-05-26T20:46:21.876Z,23.54
2018-05-26T20:48:49.288Z,23.48
2018-05-26T20:51:16.738Z,23.43
2018-05-26T20:53:44.167Z,23.37
2018-05-26T20:56:11.747Z,23.32
2018-05-26T20:58:39.160Z,23.27
2018-05-26T21:01:06.595Z,23.22
2018-05-26T21:03:35.040Z,23.19
2018-05-26T21:06:02.570Z,23.14
2018-05-26T21:08:30.028Z,23.10
2018-05-26T21:10:57.456Z,22.99
2018-05-26T21:13:24.982Z,22.95
2018-05-26T21:15:52.567Z,22.85
2018-05-26T21:18:19.994Z,22.79
2018-05-26T21:20:47.460Z,22.75
2018-05-26T21:23:14.929Z,22.74
2018-05-26T21:25:42.409Z,22.73
2018-05-26T21:28:09.835Z,22.73
2018-05-26T21:30:37.354Z,22.73
2018-05-26T21:33:04.787Z,22.72
2018-05-26T21:35:32.208Z,22.69
2018-05-26T21:37:59.740Z,22.68
2018-05-26T21:40:27.389Z,22.67
2018-05-26T21:42:54.841Z,22.64
2018-05-26T21:45:22.297Z,22.58
2018-05-26T21:47:49.728Z,22.53
2018-05-26T21:50:17.147Z,22.47
2018-05-26T21:52:44.913Z,22.43
2018-05-26T21:55:12.345Z,22.38
2018-05-26T21:57:39.754Z,22.32
2018-05-26T22:00:07.164Z,22.29
2018-05-26T22:02:34.576Z,22.23
2018-05-26T22:05:02.165Z,22.20
2018-05-26T22:07:29.567Z,22.15
2018-05-26T22:09:56.996Z,22.12
2018-05-26T22:12:24.829Z,22.06
2018-05-26T22:14:52.244Z,22.02
2018-05-26T22:17:19.646Z,21.97
2018-05-26T22:19:47.064Z,21.92
2018-05-26T22:22:22.968Z,21.89
2018-05-26T22:24:50.500Z,21.85
2018-05-26T22:27:17.905Z,21.87
2018-05-26T22:29:45.599Z,21.85
2018-05-26T22:32:13.004Z,21.83
2018-05-26T22:34:40.613Z,21.81
2018-05-26T22:37:08.057Z,21.79
2018-05-26T22:39:35.467Z,21.75
2018-05-26T22:42:02.924Z,21.75
2018-05-26T22:44:30.722Z,21.73
2018-05-26T22:46:58.123Z,21.72
2018-05-26T22:49:25.539Z,21.72
2018-05-26T22:51:53.023Z,21.72
2018-05-26T22:54:20.496Z,21.69
2018-05-26T22:56:47.948Z,21.66
2018-05-26T22:59:15.517Z,21.63
2018-05-26T23:01:42.927Z,21.60
2018-05-26T23:04:10.328Z,21.56
2018-05-26T23:06:37.891Z,21.54
2018-05-26T23:09:06.002Z,21.52
2018-05-26T23:11:33.502Z,21.52
2018-05-26T23:14:01.052Z,21.51
2018-05-26T23:16:28.458Z,21.51
2018-05-26T23:18:55.874Z,21.50
2018-05-26T23:21:23.297Z,21.49
2018-05-26T23:23:50.705Z,21.48
2018-05-26T23:26:18.127Z,21.45
2018-05-26T23:28:45.545Z,21.42
2018-05-26T23:31:12.972Z,21.41
2018-05-26T23:33:40.373Z,21.38
2018-05-26T23:36:07.808Z,21.35
2018-05-26T23:38:35.214Z,21.32
2018-05-26T23:41:02.613Z,21.28
2018-05-26T23:43:30.044Z,21.26
2018-05-26T23:45:57.452Z,21.24
2018-05-26T23:48:24.877Z,21.21
2018-05-26T23:50:52.348Z,21.20
2018-05-26T23:53:19.791Z,21.18
2018-05-26T23:55:47.213Z,21.14
2018-05-26T23:58:14.612Z,21.08
